Etusivu
METAR-TAF:

METAR-TAF

Lentoasemat :

Port Hardyn lentoasema

Port Hardy, Brittiläinen Kolumbia, Kanada

Leveyspiiri: 50-41N, Pituuspiiri: 127-22W, korkeus merenpinnasta: 22 m

Tämänhetkinen sää

Tämä raportti tehtiin 59 minuuttia sitten, kello 01.00 UTC
Tuuli 14 kn luoteesta puuskistuen 22 kn:hen
Lämpötila 9°C
Kosteus 53%
Ilmanpaine 1030 hPa
Näkyvyys: 32.2 km
Muutamia pilviä 22000 ft:n korkeudessa

METAR: CYZT 250100Z 31014G22KT 20SM FEW220 09/M00 A3041 RMK CI1 SLP301

Aika: 18:59 (01:59 UTC)

Sääennuste

Tämä raportti tehtiin 1 tunti ja 21 minuuttia sitten, kello 00.38 UTC
Ennuste voimassa 25. päivästä klo 01 UTC - 25. päivään klo 13 UTC
Tuuli 12 kn luoteesta
Näkyvyys: 10 km
Muutamia pilviä 4000 ft:n korkeudessa
Muutamia pilviä 21000 ft:n korkeudessa
From 25. päivästä klo 0900 UTC
Tuuli 5 kn lännestä
Näkyvyys: 10 km
Muutamia pilviä 1000 ft:n korkeudessa

TAF: CYZT 250038Z 2501/2513 32012KT P6SM FEW040 FEW210 FM250900 27005KT P6SM FEW010 RMK NXT FCST BY 250700Z

Säähavainnot ja -ennusteet yli 4000 lentoasemalta (METAR- ja TAF-raportit).

Käytössä olevat sääasemat on merkitty karttaan keltaisilla ja punaisilla pisteillä.

Aseta hiiri pisteen päälle nähdäksesi sääaseman nimen.

Klikkaa sitten nähdäksesi säähavainnot ja -ennusteet.

Kartan vaihtaminen: klikkaa mustalla rastilla varustettuja vihreitä pisteitä, niin voit zoomata sisään; viivalla varustettua vihreää pistettä, niin voit zoomata ulos tai vihreitä nuolia, niin pääset viereisille kartoille.


METAR-TAF: